createdAt,value
2022-09-12T00:00:52.432Z,101931.56
2022-09-12T00:03:18.916Z,101929.53
2022-09-12T00:05:47.545Z,101927.00
2022-09-12T00:08:14.634Z,101927.84
2022-09-12T00:10:42.841Z,101932.22
2022-09-12T00:13:10.670Z,101929.53
2022-09-12T00:15:41.379Z,101919.13
2022-09-12T00:18:12.111Z,101918.13
2022-09-12T00:20:42.774Z,101918.13
2022-09-12T00:23:09.806Z,101916.25
2022-09-12T00:25:42.459Z,101916.44
2022-09-12T00:28:08.915Z,101916.44
2022-09-12T00:30:35.379Z,101912.94
2022-09-12T00:33:01.846Z,101905.34
2022-09-12T00:35:28.294Z,101914.94
2022-09-12T00:37:55.136Z,101919.47
2022-09-12T00:40:21.630Z,101915.09
2022-09-12T00:42:48.084Z,101908.16
2022-09-12T00:45:27.280Z,101909.16
2022-09-12T00:47:55.231Z,101911.69
2022-09-12T00:50:21.799Z,101900.59
2022-09-12T00:53:00.176Z,101902.44
2022-09-12T00:55:32.847Z,101891.03
2022-09-12T00:58:10.007Z,101896.75
2022-09-12T01:00:36.710Z,101890.38
2022-09-12T01:03:14.692Z,101886.00
2022-09-12T01:05:46.526Z,101887.69
2022-09-12T01:08:13.145Z,101886.84
2022-09-12T01:10:41.630Z,101881.78
2022-09-12T01:13:09.772Z,101888.84
2022-09-12T01:15:40.491Z,101880.09
2022-09-12T01:18:35.511Z,101885.31
2022-09-12T01:21:05.007Z,101884.63
2022-09-12T01:24:02.694Z,101879.28
2022-09-12T01:26:41.154Z,101882.13
2022-09-12T01:29:41.417Z,101883.13
2022-09-12T01:32:20.602Z,101876.59
2022-09-12T01:34:58.161Z,101878.25
2022-09-12T01:37:44.826Z,101880.25
2022-09-12T01:40:25.248Z,101875.91
2022-09-12T01:43:21.224Z,101874.03
2022-09-12T01:46:02.127Z,101874.69
2022-09-12T01:48:40.939Z,101867.47
2022-09-12T01:51:16.260Z,101873.16
2022-09-12T01:53:51.757Z,101867.28
2022-09-12T01:56:26.559Z,101863.41
2022-09-12T01:59:12.147Z,101849.13
2022-09-12T02:01:46.756Z,101853.84
2022-09-12T02:04:19.071Z,101857.00
2022-09-12T02:06:52.626Z,101853.09
2022-09-12T02:09:26.051Z,101839.78
2022-09-12T02:11:58.360Z,101837.25
2022-09-12T02:14:29.058Z,101843.94
2022-09-12T02:17:02.334Z,101826.28
2022-09-12T02:19:36.579Z,101824.41
2022-09-12T02:22:05.553Z,101833.28
2022-09-12T02:24:36.959Z,101840.66
2022-09-12T02:27:09.789Z,101830.25
2022-09-12T02:29:36.703Z,101830.25
2022-09-12T02:32:11.287Z,101835.94
2022-09-12T02:35:13.447Z,101836.31
2022-09-12T02:37:42.944Z,101835.00
2022-09-12T02:40:09.887Z,101828.13
2022-09-12T02:42:37.248Z,101835.19
2022-09-12T02:45:04.525Z,101829.00
2022-09-12T02:47:39.538Z,101836.19
2022-09-12T02:50:08.089Z,101825.81
2022-09-12T02:52:36.044Z,101823.78
2022-09-12T02:55:05.251Z,101823.59
2022-09-12T02:57:32.038Z,101814.50
2022-09-12T03:00:01.327Z,101817.00
2022-09-12T03:03:01.906Z,101820.50
2022-09-12T03:05:41.587Z,101802.13
2022-09-12T03:08:29.159Z,101801.78
2022-09-12T03:11:25.416Z,101806.75
2022-09-12T03:13:51.935Z,101807.03
2022-09-12T03:16:34.559Z,101816.75
2022-09-12T03:19:33.449Z,101819.16
2022-09-12T03:22:39.917Z,101816.72
2022-09-12T03:25:21.002Z,101805.00
2022-09-12T03:27:59.657Z,101802.66
2022-09-12T03:30:26.787Z,101806.88
2022-09-12T03:32:55.358Z,101801.19
2022-09-12T03:35:24.207Z,101795.47
2022-09-12T03:37:52.118Z,101795.78
2022-09-12T03:40:19.213Z,101771.88
2022-09-12T03:42:45.679Z,101796.19
2022-09-12T03:45:12.621Z,101792.47
2022-09-12T03:47:39.777Z,101786.22
2022-09-12T03:50:07.029Z,101781.31
2022-09-12T03:52:33.605Z,101786.38
2022-09-12T03:55:00.115Z,101780.31
2022-09-12T03:57:26.638Z,101777.66
2022-09-12T03:59:53.113Z,101775.13
2022-09-12T04:02:19.978Z,101772.63
2022-09-12T04:04:48.901Z,101774.31
2022-09-12T04:07:16.566Z,101777.53
2022-09-12T04:09:43.069Z,101773.53
2022-09-12T04:12:09.678Z,101768.19
2022-09-12T04:14:36.218Z,101775.91
2022-09-12T04:17:03.073Z,101771.88
2022-09-12T04:19:29.628Z,101772.00
2022-09-12T04:21:56.112Z,101774.53
2022-09-12T04:24:22.606Z,101768.50
2022-09-12T04:26:49.156Z,101780.44
2022-09-12T04:29:15.805Z,101785.94
2022-09-12T04:31:42.969Z,101781.75
2022-09-12T04:34:09.834Z,101780.34
2022-09-12T04:36:36.823Z,101779.81
2022-09-12T04:39:05.403Z,101780.84
2022-09-12T04:41:37.483Z,101772.28
2022-09-12T04:44:08.036Z,101767.53
2022-09-12T04:46:36.957Z,101780.94
2022-09-12T04:49:03.967Z,101783.47
2022-09-12T04:51:33.712Z,101785.00
2022-09-12T04:54:03.998Z,101790.88
2022-09-12T04:56:30.997Z,101785.19
2022-09-12T04:59:00.487Z,101784.19
2022-09-12T05:01:29.776Z,101782.56
2022-09-12T05:03:57.742Z,101772.16
2022-09-12T05:06:30.359Z,101772.63
2022-09-12T05:08:58.510Z,101775.66
2022-09-12T05:11:41.303Z,101767.38
2022-09-12T05:14:14.307Z,101763.69
2022-09-12T05:16:41.304Z,101766.50
2022-09-12T05:19:09.216Z,101770.34
2022-09-12T05:21:35.693Z,101766.28
2022-09-12T05:24:02.478Z,101760.56
2022-09-12T05:26:29.073Z,101762.56
2022-09-12T05:28:55.595Z,101775.09
2022-09-12T05:31:25.352Z,101763.84
2022-09-12T05:33:54.370Z,101769.34
2022-09-12T05:36:26.802Z,101770.88
2022-09-12T05:38:54.058Z,101769.06
2022-09-12T05:41:24.958Z,101764.84
2022-09-12T05:43:56.531Z,101765.16
2022-09-12T05:46:25.735Z,101756.06
2022-09-12T05:48:56.355Z,101766.09
2022-09-12T05:51:28.269Z,101763.41
2022-09-12T05:53:59.952Z,101757.59
2022-09-12T05:56:31.908Z,101760.47
2022-09-12T05:59:04.126Z,101765.53
2022-09-12T06:01:35.814Z,101768.91
2022-09-12T06:04:05.086Z,101767.75
2022-09-12T06:06:32.843Z,101757.66
2022-09-12T06:09:01.315Z,101769.75
2022-09-12T06:11:31.411Z,101775.44
2022-09-12T06:13:58.600Z,101768.09
2022-09-12T06:16:27.955Z,101765.81
2022-09-12T06:18:57.151Z,101762.28
2022-09-12T06:21:25.319Z,101771.22
2022-09-12T06:23:53.223Z,101764.03
2022-09-12T06:26:23.366Z,101761.03
2022-09-12T06:28:50.618Z,101758.91
2022-09-12T06:31:23.540Z,101755.06
2022-09-12T06:33:51.868Z,101750.31
2022-09-12T06:36:24.356Z,101754.16
2022-09-12T06:39:04.887Z,101746.28
2022-09-12T06:41:32.114Z,101754.31
2022-09-12T06:44:00.198Z,101748.28
2022-09-12T06:46:27.301Z,101748.44
2022-09-12T06:48:56.051Z,101745.91
2022-09-12T06:51:22.686Z,101755.16
2022-09-12T06:53:49.664Z,101755.00
2022-09-12T06:56:21.303Z,101756.53
2022-09-12T06:58:49.734Z,101753.00
2022-09-12T07:01:22.816Z,101762.25
2022-09-12T07:03:52.334Z,101753.53
2022-09-12T07:06:21.073Z,101751.06
2022-09-12T07:08:48.473Z,101743.00
2022-09-12T07:11:21.187Z,101747.28
2022-09-12T07:13:50.408Z,101750.78
2022-09-12T07:16:19.860Z,101754.53
2022-09-12T07:19:03.720Z,101751.41
2022-09-12T07:21:30.937Z,101745.53
2022-09-12T07:24:00.866Z,101744.06
2022-09-12T07:26:28.997Z,101741.91
2022-09-12T07:29:08.237Z,101746.09
2022-09-12T07:31:44.721Z,101753.81
2022-09-12T07:34:11.638Z,101747.13
2022-09-12T07:36:39.121Z,101743.97
2022-09-12T07:39:05.923Z,101736.94
2022-09-12T07:41:35.703Z,101743.47
2022-09-12T07:44:03.905Z,101731.06
2022-09-12T07:46:31.970Z,101727.06
2022-09-12T07:49:00.119Z,101744.53
2022-09-12T07:51:28.783Z,101743.34
2022-09-12T07:53:56.498Z,101744.84
2022-09-12T07:56:28.948Z,101737.66
2022-09-12T07:58:56.933Z,101739.69
2022-09-12T08:01:23.590Z,101747.44
2022-09-12T08:03:54.436Z,101740.88
2022-09-12T08:06:26.166Z,101739.69
2022-09-12T08:08:55.206Z,101743.75
2022-09-12T08:11:23.021Z,101741.25
2022-09-12T08:13:54.826Z,101740.09
2022-09-12T08:16:23.796Z,101740.47
2022-09-12T08:18:50.718Z,101740.97
2022-09-12T08:21:20.454Z,101739.78
2022-09-12T08:23:48.423Z,101743.97
2022-09-12T08:26:14.901Z,101739.44
2022-09-12T08:28:45.739Z,101740.81
2022-09-12T08:31:17.919Z,101747.84
2022-09-12T08:33:45.286Z,101742.81
2022-09-12T08:36:29.720Z,101743.66
2022-09-12T08:39:01.780Z,101749.88
2022-09-12T08:41:45.734Z,101738.78
2022-09-12T08:44:37.135Z,101743.19
2022-09-12T08:47:06.634Z,101742.47
2022-09-12T08:49:45.539Z,101738.63
2022-09-12T08:52:17.068Z,101729.41
2022-09-12T08:54:45.514Z,101736.75
2022-09-12T08:57:14.340Z,101737.44
2022-09-12T08:59:45.565Z,101729.75
2022-09-12T09:02:49.322Z,101730.75
2022-09-12T09:05:51.780Z,101735.13
2022-09-12T09:08:40.079Z,101742.19
2022-09-12T09:11:17.309Z,101734.13
2022-09-12T09:14:33.428Z,101723.38
2022-09-12T09:17:00.730Z,101718.50
2022-09-12T09:19:34.111Z,101724.72
2022-09-12T09:22:06.260Z,101721.84
2022-09-12T09:24:47.990Z,101724.03
2022-09-12T09:27:39.496Z,101726.88
2022-09-12T09:30:14.388Z,101712.09
2022-09-12T09:32:42.189Z,101710.41
2022-09-12T09:35:36.371Z,101703.69
2022-09-12T09:38:38.145Z,101706.88
2022-09-12T09:41:27.636Z,101703.00
2022-09-12T09:43:54.191Z,101704.84
2022-09-12T09:46:20.843Z,101710.53
2022-09-12T09:48:50.069Z,101706.00
2022-09-12T09:51:27.039Z,101696.09
2022-09-12T09:54:19.667Z,101695.75
2022-09-12T09:56:46.632Z,101691.03
2022-09-12T09:59:17.790Z,101683.66
2022-09-12T10:01:50.385Z,101678.41
2022-09-12T10:04:23.475Z,101672.53
2022-09-12T10:07:02.395Z,101681.75
2022-09-12T10:09:34.197Z,101678.41
2022-09-12T10:12:19.542Z,101675.19
2022-09-12T10:14:58.156Z,101671.84
2022-09-12T10:17:33.233Z,101671.50
2022-09-12T10:20:19.999Z,101671.13
2022-09-12T10:22:48.356Z,101658.72
2022-09-12T10:25:18.967Z,101663.06
2022-09-12T10:27:53.674Z,101669.09
2022-09-12T10:30:24.798Z,101652.97
2022-09-12T10:32:51.804Z,101657.34
2022-09-12T10:35:24.752Z,101655.13
2022-09-12T10:37:59.678Z,101647.56
2022-09-12T10:40:29.603Z,101642.00
2022-09-12T10:42:58.325Z,101643.34
2022-09-12T10:45:36.526Z,101632.59
2022-09-12T10:48:25.843Z,101646.47
2022-09-12T10:50:52.430Z,101648.63
2022-09-12T10:53:33.611Z,101647.44
2022-09-12T10:56:19.560Z,101645.41
2022-09-12T10:59:22.711Z,101644.41
2022-09-12T11:01:55.789Z,101630.97
2022-09-12T11:04:29.638Z,101637.63
2022-09-12T11:07:11.419Z,101636.44
2022-09-12T11:09:44.014Z,101639.97
2022-09-12T11:12:36.349Z,101635.44
2022-09-12T11:15:24.893Z,101631.06
2022-09-12T11:18:07.028Z,101633.75
2022-09-12T11:20:42.722Z,101631.19
2022-09-12T11:23:35.386Z,101632.88
2022-09-12T11:26:20.696Z,101632.03
2022-09-12T11:29:05.549Z,101619.59
2022-09-12T11:32:08.471Z,101628.13
2022-09-12T11:34:46.489Z,101628.78
2022-09-12T11:37:18.100Z,101624.25
2022-09-12T11:39:52.269Z,101624.06
2022-09-12T11:42:33.128Z,101617.84
2022-09-12T11:45:12.755Z,101614.81
2022-09-12T11:47:41.844Z,101621.03
2022-09-12T11:50:23.418Z,101619.00
2022-09-12T11:52:51.118Z,101612.59
2022-09-12T11:55:19.545Z,101610.56
2022-09-12T11:57:58.909Z,101607.66
2022-09-12T12:00:28.294Z,101604.78
2022-09-12T12:03:01.224Z,101610.00
2022-09-12T12:06:07.030Z,101609.81
2022-09-12T12:08:40.083Z,101609.81
2022-09-12T12:11:11.072Z,101613.19
2022-09-12T12:13:59.119Z,101607.63
2022-09-12T12:16:30.060Z,101609.13
2022-09-12T12:19:10.475Z,101603.53
2022-09-12T12:21:50.970Z,101601.50
2022-09-12T12:24:26.075Z,101602.19
2022-09-12T12:26:58.025Z,101598.66
2022-09-12T12:29:44.047Z,101586.34
2022-09-12T12:32:10.843Z,101587.53
2022-09-12T12:34:45.699Z,101577.78
2022-09-12T12:37:28.121Z,101579.25
2022-09-12T12:40:03.088Z,101571.00
2022-09-12T12:42:35.435Z,101569.16
2022-09-12T12:45:04.061Z,101574.53
2022-09-12T12:47:42.591Z,101559.41
2022-09-12T12:50:30.088Z,101557.38
2022-09-12T12:53:05.716Z,101549.94
2022-09-12T12:55:45.812Z,101544.56
2022-09-12T12:58:37.161Z,101548.72
2022-09-12T13:01:14.885Z,101549.19
2022-09-12T13:03:45.416Z,101545.00
2022-09-12T13:06:38.272Z,101536.38
2022-09-12T13:09:27.040Z,101535.38
2022-09-12T13:12:01.639Z,101527.28
2022-09-12T13:14:43.139Z,101524.03
2022-09-12T13:17:34.330Z,101525.69
2022-09-12T13:20:26.655Z,101520.97
2022-09-12T13:22:54.380Z,101515.41
2022-09-12T13:25:36.600Z,101515.41
2022-09-12T13:28:11.320Z,101509.16
2022-09-12T13:31:04.338Z,101506.31
2022-09-12T13:33:33.851Z,101518.38
2022-09-12T13:36:06.363Z,101518.38
2022-09-12T13:38:57.784Z,101515.50
2022-09-12T13:41:40.129Z,101519.66
2022-09-12T13:44:13.240Z,101520.31
2022-09-12T13:46:39.969Z,101512.22
2022-09-12T13:49:22.929Z,101507.31
2022-09-12T13:52:06.264Z,101508.97
2022-09-12T13:54:35.608Z,101508.97
2022-09-12T13:57:02.124Z,101504.25
2022-09-12T13:59:28.618Z,101501.19
2022-09-12T14:01:55.119Z,101497.44
2022-09-12T14:04:44.998Z,101494.75
2022-09-12T14:07:17.497Z,101481.69
2022-09-12T14:09:47.081Z,101470.06
2022-09-12T14:12:25.192Z,101477.19
2022-09-12T14:14:53.062Z,101470.97
2022-09-12T14:17:34.719Z,101467.91
2022-09-12T14:20:03.590Z,101468.56
2022-09-12T14:22:31.042Z,101478.31
2022-09-12T14:24:59.547Z,101468.38
2022-09-12T14:27:30.155Z,101458.63
2022-09-12T14:30:09.092Z,101472.72
2022-09-12T14:32:36.121Z,101461.94
2022-09-12T14:35:26.884Z,101456.75
2022-09-12T14:37:53.831Z,101455.91
2022-09-12T14:40:23.608Z,101452.63
2022-09-12T14:42:53.041Z,101457.84
2022-09-12T14:45:22.319Z,101454.13
2022-09-12T14:47:51.270Z,101442.91
2022-09-12T14:50:23.344Z,101443.34
2022-09-12T14:53:18.640Z,101440.81
2022-09-12T14:56:06.058Z,101440.81
2022-09-12T14:58:32.868Z,101441.66
2022-09-12T15:01:24.185Z,101446.03
2022-09-12T15:03:55.898Z,101435.09
2022-09-12T15:06:36.769Z,101424.47
2022-09-12T15:09:07.298Z,101431.38
2022-09-12T15:11:33.859Z,101433.88
2022-09-12T15:14:13.678Z,101433.06
2022-09-12T15:16:40.217Z,101428.69
2022-09-12T15:19:06.699Z,101430.16
2022-09-12T15:21:33.511Z,101430.81
2022-09-12T15:24:00.009Z,101422.53
2022-09-12T15:26:30.552Z,101419.84
2022-09-12T15:28:57.636Z,101418.19
2022-09-12T15:31:27.076Z,101423.81
2022-09-12T15:33:55.058Z,101422.78
2022-09-12T15:36:23.543Z,101413.03
2022-09-12T15:38:51.174Z,101417.22
2022-09-12T15:41:20.448Z,101418.22
2022-09-12T15:43:47.771Z,101423.25
2022-09-12T15:46:17.079Z,101408.94
2022-09-12T15:48:43.865Z,101397.50
2022-09-12T15:51:16.033Z,101404.84
2022-09-12T15:53:43.428Z,101390.91
2022-09-12T15:56:09.945Z,101396.75
2022-09-12T15:58:36.447Z,101399.44
2022-09-12T16:01:03.625Z,101402.78
2022-09-12T16:03:30.398Z,101390.13
2022-09-12T16:05:59.714Z,101390.13
2022-09-12T16:08:26.817Z,101388.06
2022-09-12T16:10:56.561Z,101386.59
2022-09-12T16:13:24.190Z,101380.16
2022-09-12T16:15:51.369Z,101381.66
2022-09-12T16:18:18.194Z,101381.84
2022-09-12T16:20:44.978Z,101375.59
2022-09-12T16:23:12.682Z,101380.63
2022-09-12T16:25:42.949Z,101370.44
2022-09-12T16:28:09.453Z,101372.72
2022-09-12T16:30:36.330Z,101368.56
2022-09-12T16:33:02.988Z,101367.13
2022-09-12T16:35:31.618Z,101369.00
2022-09-12T16:37:58.181Z,101378.75
2022-09-12T16:40:24.968Z,101369.84
2022-09-12T16:42:51.436Z,101368.81
2022-09-12T16:45:18.078Z,101363.41
2022-09-12T16:47:44.559Z,101350.31
2022-09-12T16:50:11.416Z,101347.44
2022-09-12T16:52:37.979Z,101350.59
2022-09-12T16:55:04.878Z,101342.88
2022-09-12T16:57:31.343Z,101341.47
2022-09-12T16:59:57.835Z,101332.94
2022-09-12T17:02:24.427Z,101337.75
2022-09-12T17:04:52.679Z,101318.44
2022-09-12T17:07:19.482Z,101327.81
2022-09-12T17:09:48.086Z,101324.28
2022-09-12T17:12:14.837Z,101335.06
2022-09-12T17:14:41.323Z,101329.22
2022-09-12T17:17:07.854Z,101332.16
2022-09-12T17:19:34.375Z,101333.75
2022-09-12T17:22:01.239Z,101346.47
2022-09-12T17:24:27.817Z,101348.34
2022-09-12T17:26:54.440Z,101341.47
2022-09-12T17:29:21.104Z,101337.94
2022-09-12T17:31:48.147Z,101341.09
2022-09-12T17:34:15.208Z,101334.66
2022-09-12T17:36:45.852Z,101340.25
2022-09-12T17:39:13.655Z,101343.59
2022-09-12T17:41:42.822Z,101329.47
2022-09-12T17:44:13.096Z,101320.75
2022-09-12T17:46:40.390Z,101323.44
2022-09-12T17:49:18.660Z,101318.88
2022-09-12T17:51:45.461Z,101323.88
2022-09-12T17:54:15.670Z,101311.81
2022-09-12T17:56:44.268Z,101329.47
2022-09-12T17:59:15.092Z,101314.25
2022-09-12T18:02:00.371Z,101325.75
2022-09-12T18:04:27.706Z,101318.22
2022-09-12T18:06:54.341Z,101320.53
2022-09-12T18:09:24.896Z,101320.94
2022-09-12T18:11:52.427Z,101328.63
2022-09-12T18:14:19.697Z,101326.13
2022-09-12T18:16:47.417Z,101322.59
2022-09-12T18:19:14.640Z,101325.28
2022-09-12T18:21:41.601Z,101328.63
2022-09-12T18:24:10.096Z,101319.44
2022-09-12T18:26:37.296Z,101318.22
2022-09-12T18:29:03.871Z,101319.06
2022-09-12T18:31:31.046Z,101321.56
2022-09-12T18:34:02.697Z,101318.03
2022-09-12T18:36:30.536Z,101322.59
2022-09-12T18:38:58.813Z,101315.09
2022-09-12T18:41:26.197Z,101316.56
2022-09-12T18:43:57.597Z,101319.91
2022-09-12T18:46:25.703Z,101322.59
2022-09-12T18:48:55.391Z,101314.06
2022-09-12T18:51:25.380Z,101314.50
2022-09-12T18:53:56.899Z,101320.09
2022-09-12T18:56:25.680Z,101319.66
2022-09-12T18:58:54.337Z,101312.84
2022-09-12T19:01:39.530Z,101314.91
2022-09-12T19:04:07.924Z,101316.56
2022-09-12T19:06:38.131Z,101305.78
2022-09-12T19:09:08.248Z,101305.13
2022-09-12T19:11:37.876Z,101307.00
2022-09-12T19:14:04.720Z,101290.41
2022-09-12T19:16:32.774Z,101300.78
2022-09-12T19:18:59.643Z,101302.44
2022-09-12T19:21:29.845Z,101298.91
2022-09-12T19:23:58.924Z,101301.19
2022-09-12T19:26:25.903Z,101290.41
2022-09-12T19:28:54.008Z,101291.44
2022-09-12T19:31:21.795Z,101308.84
2022-09-12T19:33:48.451Z,101294.13
2022-09-12T19:36:43.429Z,101301.38
2022-09-12T19:39:05.805Z,101304.69
2022-09-12T19:41:32.794Z,101303.88
2022-09-12T19:43:59.547Z,101303.25
2022-09-12T19:46:26.744Z,101304.69
2022-09-12T19:48:53.998Z,101308.22
2022-09-12T19:51:23.831Z,101303.06
2022-09-12T19:53:51.419Z,101299.28
2022-09-12T19:56:17.956Z,101296.00
2022-09-12T19:58:46.660Z,101292.47
2022-09-12T20:01:16.346Z,101289.31
2022-09-12T20:03:43.996Z,101285.97
2022-09-12T20:06:13.491Z,101286.38
2022-09-12T20:08:42.120Z,101290.72
2022-09-12T20:11:09.695Z,101283.03
2022-09-12T20:13:36.601Z,101290.50
2022-09-12T20:16:29.180Z,101279.25
2022-09-12T20:19:03.595Z,101277.59
2022-09-12T20:21:32.192Z,101269.50
2022-09-12T20:24:04.769Z,101269.69
2022-09-12T20:26:31.744Z,101273.59
2022-09-12T20:28:58.390Z,101270.88
2022-09-12T20:31:25.142Z,101277.72
2022-09-12T20:33:52.124Z,101267.56
2022-09-12T20:36:20.402Z,101279.56
2022-09-12T20:38:52.647Z,101282.47
2022-09-12T20:41:20.595Z,101285.53
2022-09-12T20:43:51.742Z,101288.41
2022-09-12T20:46:21.890Z,101277.38
2022-09-12T20:48:49.912Z,101279.06
2022-09-12T20:51:16.790Z,101272.22
2022-09-12T20:53:43.254Z,101266.19
2022-09-12T20:56:09.903Z,101271.75
2022-09-12T20:58:39.389Z,101264.06
2022-09-12T21:01:11.364Z,101250.31
2022-09-12T21:03:38.991Z,101260.06
2022-09-12T21:06:06.354Z,101246.19
2022-09-12T21:08:33.931Z,101253.03
2022-09-12T21:11:00.679Z,101258.63
2022-09-12T21:13:27.256Z,101251.38
2022-09-12T21:16:17.508Z,101262.16
2022-09-12T21:18:44.212Z,101260.47
2022-09-12T21:21:12.577Z,101251.31
2022-09-12T21:23:39.827Z,101255.22
2022-09-12T21:26:07.555Z,101259.13
2022-09-12T21:28:34.336Z,101251.81
2022-09-12T21:31:01.332Z,101253.50
2022-09-12T21:33:28.184Z,101252.66
2022-09-12T21:35:54.734Z,101249.97
2022-09-12T21:38:21.312Z,101243.09
2022-09-12T21:40:47.862Z,101238.09
2022-09-12T21:43:14.907Z,101238.88
2022-09-12T21:45:41.789Z,101236.75
2022-09-12T21:48:08.257Z,101247.97
2022-09-12T21:50:34.843Z,101248.63
2022-09-12T21:53:01.378Z,101257.53
2022-09-12T21:55:27.981Z,101251.94
2022-09-12T21:57:55.043Z,101259.63
2022-09-12T22:00:22.002Z,101256.50
2022-09-12T22:02:48.849Z,101266.69
2022-09-12T22:05:15.632Z,101270.22
2022-09-12T22:07:42.305Z,101265.84
2022-09-12T22:10:09.192Z,101272.25
2022-09-12T22:12:35.713Z,101265.19
2022-09-12T22:15:17.439Z,101270.59
2022-09-12T22:17:48.678Z,101261.91
2022-09-12T22:20:15.342Z,101263.75
2022-09-12T22:23:00.430Z,101249.84
2022-09-12T22:25:27.040Z,101259.38
2022-09-12T22:27:54.374Z,101260.00
2022-09-12T22:30:22.253Z,101257.72
2022-09-12T22:32:50.449Z,101265.38
2022-09-12T22:35:18.034Z,101251.13
2022-09-12T22:37:44.858Z,101239.72
2022-09-12T22:40:11.914Z,101235.34
2022-09-12T22:42:38.698Z,101239.53
2022-09-12T22:45:06.395Z,101227.09
2022-09-12T22:47:33.817Z,101229.97
2022-09-12T22:50:00.281Z,101227.47
2022-09-12T22:52:26.825Z,101223.09
2022-09-12T22:54:53.541Z,101227.66
2022-09-12T22:57:20.049Z,101218.28
2022-09-12T22:59:46.607Z,101220.97
2022-09-12T23:02:13.210Z,101219.47
2022-09-12T23:04:40.009Z,101216.78
2022-09-12T23:07:06.601Z,101213.25
2022-09-12T23:09:35.374Z,101213.06
2022-09-12T23:12:02.653Z,101215.94
2022-09-12T23:14:29.126Z,101218.44
2022-09-12T23:16:55.601Z,101211.19
2022-09-12T23:19:22.125Z,101213.06
2022-09-12T23:21:48.581Z,101222.66
2022-09-12T23:24:15.093Z,101218.09
2022-09-12T23:26:41.543Z,101205.75
2022-09-12T23:29:09.214Z,101215.59
2022-09-12T23:31:36.217Z,101216.44
2022-09-12T23:34:05.985Z,101215.41
2022-09-12T23:36:32.920Z,101206.50
2022-09-12T23:38:59.440Z,101205.66
2022-09-12T23:41:26.011Z,101198.56
2022-09-12T23:43:52.711Z,101191.53
2022-09-12T23:46:20.389Z,101195.06
2022-09-12T23:48:47.340Z,101198.56
2022-09-12T23:51:14.460Z,101206.84
2022-09-12T23:53:41.367Z,101204.16
2022-09-12T23:56:08.065Z,101201.47
2022-09-12T23:58:34.592Z,101200.63
